sensor_id;sensor_type;location;lat;lon;timestamp;P1;durP1;ratioP1;P2;durP2;ratioP2
50379;SDS011;37474;59.468;18.040;2023-03-20T00:00:00;4.23;;;2.60;;
50379;SDS011;37474;59.468;18.040;2023-03-20T00:02:28;3.73;;;2.87;;
50379;SDS011;37474;59.468;18.040;2023-03-20T00:04:58;3.08;;;2.40;;
50379;SDS011;37474;59.468;18.040;2023-03-20T00:07:30;4.87;;;2.80;;
50379;SDS011;37474;59.468;18.040;2023-03-20T00:09:59;4.10;;;2.70;;
50379;SDS011;37474;59.468;18.040;2023-03-20T00:12:27;3.30;;;2.40;;
50379;SDS011;37474;59.468;18.040;2023-03-20T00:14:57;5.27;;;2.83;;
50379;SDS011;37474;59.468;18.040;2023-03-20T00:17:27;4.57;;;2.63;;
50379;SDS011;37474;59.468;18.040;2023-03-20T00:19:55;4.30;;;2.77;;
50379;SDS011;37474;59.468;18.040;2023-03-20T00:22:25;4.10;;;2.63;;
50379;SDS011;37474;59.468;18.040;2023-03-20T00:25:14;5.63;;;3.20;;
50379;SDS011;37474;59.468;18.040;2023-03-20T00:27:45;7.07;;;3.50;;
50379;SDS011;37474;59.468;18.040;2023-03-20T00:30:27;7.70;;;3.83;;
50379;SDS011;37474;59.468;18.040;2023-03-20T00:32:58;7.50;;;3.73;;
50379;SDS011;37474;59.468;18.040;2023-03-20T00:35:27;7.27;;;3.80;;
50379;SDS011;37474;59.468;18.040;2023-03-20T00:38:14;6.53;;;3.30;;
50379;SDS011;37474;59.468;18.040;2023-03-20T00:40:45;6.38;;;3.70;;
50379;SDS011;37474;59.468;18.040;2023-03-20T00:43:13;7.40;;;3.90;;
50379;SDS011;37474;59.468;18.040;2023-03-20T00:45:45;6.90;;;3.97;;
50379;SDS011;37474;59.468;18.040;2023-03-20T00:48:15;7.00;;;3.77;;
50379;SDS011;37474;59.468;18.040;2023-03-20T00:50:42;7.77;;;4.53;;
50379;SDS011;37474;59.468;18.040;2023-03-20T00:53:12;7.70;;;4.20;;
50379;SDS011;37474;59.468;18.040;2023-03-20T00:55:42;8.60;;;4.13;;
50379;SDS011;37474;59.468;18.040;2023-03-20T00:58:11;9.77;;;4.47;;
50379;SDS011;37474;59.468;18.040;2023-03-20T01:00:42;8.07;;;4.53;;
50379;SDS011;37474;59.468;18.040;2023-03-20T01:03:14;7.63;;;4.40;;
50379;SDS011;37474;59.468;18.040;2023-03-20T01:05:45;9.15;;;4.57;;
50379;SDS011;37474;59.468;18.040;2023-03-20T01:08:16;7.93;;;4.83;;
50379;SDS011;37474;59.468;18.040;2023-03-20T01:10:48;10.32;;;4.85;;
50379;SDS011;37474;59.468;18.040;2023-03-20T01:13:23;11.87;;;5.30;;
50379;SDS011;37474;59.468;18.040;2023-03-20T01:15:55;8.87;;;4.70;;
50379;SDS011;37474;59.468;18.040;2023-03-20T01:18:26;7.90;;;4.73;;
50379;SDS011;37474;59.468;18.040;2023-03-20T01:20:54;9.87;;;5.57;;
50379;SDS011;37474;59.468;18.040;2023-03-20T01:23:24;8.47;;;4.80;;
50379;SDS011;37474;59.468;18.040;2023-03-20T01:25:55;8.27;;;4.70;;
50379;SDS011;37474;59.468;18.040;2023-03-20T01:28:25;8.40;;;5.00;;
50379;SDS011;37474;59.468;18.040;2023-03-20T01:30:58;9.77;;;5.27;;
50379;SDS011;37474;59.468;18.040;2023-03-20T01:33:26;9.53;;;5.30;;
50379;SDS011;37474;59.468;18.040;2023-03-20T01:35:56;11.20;;;5.20;;
50379;SDS011;37474;59.468;18.040;2023-03-20T01:38:26;10.77;;;5.13;;
50379;SDS011;37474;59.468;18.040;2023-03-20T01:40:55;9.80;;;4.90;;
50379;SDS011;37474;59.468;18.040;2023-03-20T01:43:30;8.57;;;4.87;;
50379;SDS011;37474;59.468;18.040;2023-03-20T01:46:03;9.60;;;4.77;;
50379;SDS011;37474;59.468;18.040;2023-03-20T01:48:56;13.13;;;5.17;;
50379;SDS011;37474;59.468;18.040;2023-03-20T01:51:29;12.90;;;6.07;;
50379;SDS011;37474;59.468;18.040;2023-03-20T01:54:01;11.93;;;5.80;;
50379;SDS011;37474;59.468;18.040;2023-03-20T01:56:36;10.73;;;5.33;;
50379;SDS011;37474;59.468;18.040;2023-03-20T01:59:11;9.90;;;5.40;;
50379;SDS011;37474;59.468;18.040;2023-03-20T02:01:43;9.23;;;4.97;;
50379;SDS011;37474;59.468;18.040;2023-03-20T02:04:13;12.50;;;5.40;;
50379;SDS011;37474;59.468;18.040;2023-03-20T02:06:42;9.40;;;5.47;;
50379;SDS011;37474;59.468;18.040;2023-03-20T02:09:13;11.63;;;5.33;;
50379;SDS011;37474;59.468;18.040;2023-03-20T02:11:44;12.90;;;5.80;;
50379;SDS011;37474;59.468;18.040;2023-03-20T02:14:15;13.87;;;6.20;;
50379;SDS011;37474;59.468;18.040;2023-03-20T02:16:43;9.93;;;5.33;;
50379;SDS011;37474;59.468;18.040;2023-03-20T02:19:14;11.20;;;5.80;;
50379;SDS011;37474;59.468;18.040;2023-03-20T02:24:57;13.20;;;5.60;;
50379;SDS011;37474;59.468;18.040;2023-03-20T02:27:52;14.07;;;5.80;;
50379;SDS011;37474;59.468;18.040;2023-03-20T02:30:48;10.53;;;4.90;;
50379;SDS011;37474;59.468;18.040;2023-03-20T02:36:58;11.68;;;5.95;;
50379;SDS011;37474;59.468;18.040;2023-03-20T02:40:04;12.93;;;5.67;;
50379;SDS011;37474;59.468;18.040;2023-03-20T02:42:44;9.67;;;5.20;;
50379;SDS011;37474;59.468;18.040;2023-03-20T02:45:25;19.30;;;5.23;;
50379;SDS011;37474;59.468;18.040;2023-03-20T02:47:59;10.87;;;5.77;;
50379;SDS011;37474;59.468;18.040;2023-03-20T02:50:39;9.37;;;5.33;;
50379;SDS011;37474;59.468;18.040;2023-03-20T02:53:18;11.37;;;5.47;;
50379;SDS011;37474;59.468;18.040;2023-03-20T02:55:57;13.57;;;5.40;;
50379;SDS011;37474;59.468;18.040;2023-03-20T02:58:40;13.73;;;5.90;;
50379;SDS011;37474;59.468;18.040;2023-03-20T03:01:15;9.70;;;5.47;;
50379;SDS011;37474;59.468;18.040;2023-03-20T03:03:50;12.23;;;5.33;;
50379;SDS011;37474;59.468;18.040;2023-03-20T03:06:25;11.87;;;5.80;;
50379;SDS011;37474;59.468;18.040;2023-03-20T03:09:00;9.17;;;4.73;;
50379;SDS011;37474;59.468;18.040;2023-03-20T03:11:35;9.53;;;5.23;;
50379;SDS011;37474;59.468;18.040;2023-03-20T03:14:09;13.40;;;5.27;;
50379;SDS011;37474;59.468;18.040;2023-03-20T03:16:48;14.23;;;5.90;;
50379;SDS011;37474;59.468;18.040;2023-03-20T03:19:22;8.93;;;5.20;;
50379;SDS011;37474;59.468;18.040;2023-03-20T03:21:53;13.63;;;5.90;;
50379;SDS011;37474;59.468;18.040;2023-03-20T03:24:28;15.70;;;6.33;;
50379;SDS011;37474;59.468;18.040;2023-03-20T03:27:09;12.23;;;5.83;;
50379;SDS011;37474;59.468;18.040;2023-03-20T03:29:45;12.33;;;5.47;;
50379;SDS011;37474;59.468;18.040;2023-03-20T03:32:24;11.27;;;6.50;;
50379;SDS011;37474;59.468;18.040;2023-03-20T03:34:57;11.97;;;5.93;;
50379;SDS011;37474;59.468;18.040;2023-03-20T03:37:31;12.37;;;6.10;;
50379;SDS011;37474;59.468;18.040;2023-03-20T03:40:12;11.23;;;6.03;;
50379;SDS011;37474;59.468;18.040;2023-03-20T03:42:51;11.03;;;6.10;;
50379;SDS011;37474;59.468;18.040;2023-03-20T03:45:26;13.63;;;6.83;;
50379;SDS011;37474;59.468;18.040;2023-03-20T03:47:58;15.80;;;6.50;;
50379;SDS011;37474;59.468;18.040;2023-03-20T03:50:32;10.87;;;5.90;;
50379;SDS011;37474;59.468;18.040;2023-03-20T03:53:08;14.80;;;6.67;;
50379;SDS011;37474;59.468;18.040;2023-03-20T03:55:41;13.70;;;7.03;;
50379;SDS011;37474;59.468;18.040;2023-03-20T03:58:16;14.57;;;7.13;;
50379;SDS011;37474;59.468;18.040;2023-03-20T04:00:50;9.80;;;6.00;;
50379;SDS011;37474;59.468;18.040;2023-03-20T04:03:24;10.03;;;5.63;;
50379;SDS011;37474;59.468;18.040;2023-03-20T04:06:00;10.30;;;5.77;;
50379;SDS011;37474;59.468;18.040;2023-03-20T04:08:33;9.20;;;5.43;;
50379;SDS011;37474;59.468;18.040;2023-03-20T04:11:04;9.97;;;5.67;;
50379;SDS011;37474;59.468;18.040;2023-03-20T04:13:32;8.67;;;5.40;;
50379;SDS011;37474;59.468;18.040;2023-03-20T04:16:02;8.00;;;4.68;;
50379;SDS011;37474;59.468;18.040;2023-03-20T04:18:31;8.10;;;5.27;;
50379;SDS011;37474;59.468;18.040;2023-03-20T04:20:58;8.10;;;4.73;;
50379;SDS011;37474;59.468;18.040;2023-03-20T04:23:28;9.25;;;5.45;;
50379;SDS011;37474;59.468;18.040;2023-03-20T04:25:58;9.00;;;5.37;;
50379;SDS011;37474;59.468;18.040;2023-03-20T04:28:28;8.10;;;5.40;;
50379;SDS011;37474;59.468;18.040;2023-03-20T04:30:58;8.37;;;5.23;;
50379;SDS011;37474;59.468;18.040;2023-03-20T04:33:28;7.50;;;5.07;;
50379;SDS011;37474;59.468;18.040;2023-03-20T04:35:57;9.27;;;6.10;;
50379;SDS011;37474;59.468;18.040;2023-03-20T04:38:29;9.18;;;5.95;;
50379;SDS011;37474;59.468;18.040;2023-03-20T04:40:57;7.78;;;5.13;;
50379;SDS011;37474;59.468;18.040;2023-03-20T04:43:24;9.80;;;5.60;;
50379;SDS011;37474;59.468;18.040;2023-03-20T04:45:55;9.15;;;5.30;;
50379;SDS011;37474;59.468;18.040;2023-03-20T04:48:26;7.80;;;5.37;;
50379;SDS011;37474;59.468;18.040;2023-03-20T04:50:54;8.40;;;5.33;;
50379;SDS011;37474;59.468;18.040;2023-03-20T04:53:26;9.63;;;6.00;;
50379;SDS011;37474;59.468;18.040;2023-03-20T04:55:53;8.73;;;5.80;;
50379;SDS011;37474;59.468;18.040;2023-03-20T04:58:21;9.23;;;5.17;;
50379;SDS011;37474;59.468;18.040;2023-03-20T05:00:53;9.63;;;5.32;;
50379;SDS011;37474;59.468;18.040;2023-03-20T05:03:27;10.33;;;5.47;;
50379;SDS011;37474;59.468;18.040;2023-03-20T05:05:57;8.53;;;5.40;;
50379;SDS011;37474;59.468;18.040;2023-03-20T05:08:25;7.93;;;5.18;;
50379;SDS011;37474;59.468;18.040;2023-03-20T05:10:53;8.73;;;5.47;;
50379;SDS011;37474;59.468;18.040;2023-03-20T05:13:23;9.60;;;5.40;;
50379;SDS011;37474;59.468;18.040;2023-03-20T05:15:51;8.32;;;5.45;;
50379;SDS011;37474;59.468;18.040;2023-03-20T05:18:20;7.68;;;4.90;;
50379;SDS011;37474;59.468;18.040;2023-03-20T05:20:51;8.27;;;5.30;;
50379;SDS011;37474;59.468;18.040;2023-03-20T05:23:19;7.87;;;5.00;;
50379;SDS011;37474;59.468;18.040;2023-03-20T05:25:49;8.80;;;5.53;;
50379;SDS011;37474;59.468;18.040;2023-03-20T05:28:19;9.83;;;5.03;;
50379;SDS011;37474;59.468;18.040;2023-03-20T05:30:52;10.30;;;5.20;;
50379;SDS011;37474;59.468;18.040;2023-03-20T05:33:20;9.43;;;5.20;;
50379;SDS011;37474;59.468;18.040;2023-03-20T05:35:50;10.73;;;5.70;;
50379;SDS011;37474;59.468;18.040;2023-03-20T05:38:18;10.70;;;6.00;;
50379;SDS011;37474;59.468;18.040;2023-03-20T05:40:47;12.90;;;6.45;;
50379;SDS011;37474;59.468;18.040;2023-03-20T05:43:17;10.83;;;5.97;;
50379;SDS011;37474;59.468;18.040;2023-03-20T05:45:47;9.40;;;5.73;;
50379;SDS011;37474;59.468;18.040;2023-03-20T05:48:15;16.23;;;6.83;;
50379;SDS011;37474;59.468;18.040;2023-03-20T05:50:43;13.43;;;7.43;;
50379;SDS011;37474;59.468;18.040;2023-03-20T05:53:14;13.97;;;7.70;;
50379;SDS011;37474;59.468;18.040;2023-03-20T05:55:42;16.90;;;9.33;;
50379;SDS011;37474;59.468;18.040;2023-03-20T05:58:13;21.23;;;11.97;;
50379;SDS011;37474;59.468;18.040;2023-03-20T06:00:42;17.27;;;7.60;;
50379;SDS011;37474;59.468;18.040;2023-03-20T06:03:12;15.90;;;7.70;;
50379;SDS011;37474;59.468;18.040;2023-03-20T06:05:40;15.98;;;8.13;;
50379;SDS011;37474;59.468;18.040;2023-03-20T06:08:10;18.98;;;8.52;;
50379;SDS011;37474;59.468;18.040;2023-03-20T06:10:41;17.50;;;8.87;;
50379;SDS011;37474;59.468;18.040;2023-03-20T06:13:09;20.60;;;8.27;;
50379;SDS011;37474;59.468;18.040;2023-03-20T06:15:39;21.00;;;8.70;;
50379;SDS011;37474;59.468;18.040;2023-03-20T06:18:09;20.33;;;9.20;;
50379;SDS011;37474;59.468;18.040;2023-03-20T06:20:39;25.30;;;9.70;;
50379;SDS011;37474;59.468;18.040;2023-03-20T06:23:07;23.73;;;10.30;;
50379;SDS011;37474;59.468;18.040;2023-03-20T06:25:37;25.03;;;9.63;;
50379;SDS011;37474;59.468;18.040;2023-03-20T06:28:06;26.15;;;9.23;;
50379;SDS011;37474;59.468;18.040;2023-03-20T06:30:36;24.73;;;9.90;;
50379;SDS011;37474;59.468;18.040;2023-03-20T06:33:06;23.03;;;9.63;;
50379;SDS011;37474;59.468;18.040;2023-03-20T06:38:03;22.10;;;10.27;;
50379;SDS011;37474;59.468;18.040;2023-03-20T06:40:33;23.77;;;10.43;;
50379;SDS011;37474;59.468;18.040;2023-03-20T06:45:33;34.20;;;11.77;;
50379;SDS011;37474;59.468;18.040;2023-03-20T06:48:04;24.77;;;11.13;;
50379;SDS011;37474;59.468;18.040;2023-03-20T06:50:34;26.83;;;11.20;;
50379;SDS011;37474;59.468;18.040;2023-03-20T06:53:02;27.67;;;11.83;;
50379;SDS011;37474;59.468;18.040;2023-03-20T06:55:30;27.37;;;11.67;;
50379;SDS011;37474;59.468;18.040;2023-03-20T07:00:30;28.70;;;10.37;;
50379;SDS011;37474;59.468;18.040;2023-03-20T07:02:59;26.93;;;11.53;;
50379;SDS011;37474;59.468;18.040;2023-03-20T07:05:29;24.73;;;11.10;;
50379;SDS011;37474;59.468;18.040;2023-03-20T07:07:57;23.03;;;10.70;;
50379;SDS011;37474;59.468;18.040;2023-03-20T07:10:26;22.90;;;10.87;;
50379;SDS011;37474;59.468;18.040;2023-03-20T07:12:56;23.80;;;11.23;;
50379;SDS011;37474;59.468;18.040;2023-03-20T07:15:24;24.73;;;11.87;;
50379;SDS011;37474;59.468;18.040;2023-03-20T07:17:53;26.07;;;11.90;;
50379;SDS011;37474;59.468;18.040;2023-03-20T07:20:25;27.23;;;11.40;;
50379;SDS011;37474;59.468;18.040;2023-03-20T07:22:53;23.00;;;11.10;;
50379;SDS011;37474;59.468;18.040;2023-03-20T07:25:21;22.10;;;11.40;;
50379;SDS011;37474;59.468;18.040;2023-03-20T07:28:07;21.73;;;11.23;;
50379;SDS011;37474;59.468;18.040;2023-03-20T07:30:37;24.10;;;11.27;;
50379;SDS011;37474;59.468;18.040;2023-03-20T07:33:07;22.40;;;11.27;;
50379;SDS011;37474;59.468;18.040;2023-03-20T07:35:37;25.13;;;11.87;;
50379;SDS011;37474;59.468;18.040;2023-03-20T07:38:05;21.85;;;11.48;;
50379;SDS011;37474;59.468;18.040;2023-03-20T07:40:35;23.33;;;11.38;;
50379;SDS011;37474;59.468;18.040;2023-03-20T07:43:03;21.97;;;11.60;;
50379;SDS011;37474;59.468;18.040;2023-03-20T07:45:31;23.43;;;11.87;;
50379;SDS011;37474;59.468;18.040;2023-03-20T07:48:01;21.42;;;11.60;;
50379;SDS011;37474;59.468;18.040;2023-03-20T07:50:32;22.07;;;11.57;;
50379;SDS011;37474;59.468;18.040;2023-03-20T07:53:01;25.10;;;12.33;;
50379;SDS011;37474;59.468;18.040;2023-03-20T07:55:31;20.67;;;10.87;;
50379;SDS011;37474;59.468;18.040;2023-03-20T07:58:02;22.67;;;11.67;;
50379;SDS011;37474;59.468;18.040;2023-03-20T08:00:29;23.45;;;11.88;;
50379;SDS011;37474;59.468;18.040;2023-03-20T08:02:57;22.47;;;11.80;;
50379;SDS011;37474;59.468;18.040;2023-03-20T08:05:25;22.53;;;11.87;;
50379;SDS011;37474;59.468;18.040;2023-03-20T08:07:55;22.67;;;11.70;;
50379;SDS011;37474;59.468;18.040;2023-03-20T08:10:23;27.13;;;12.77;;
50379;SDS011;37474;59.468;18.040;2023-03-20T08:12:53;24.63;;;12.77;;
50379;SDS011;37474;59.468;18.040;2023-03-20T08:15:21;23.92;;;13.02;;
50379;SDS011;37474;59.468;18.040;2023-03-20T08:17:51;22.02;;;12.13;;
50379;SDS011;37474;59.468;18.040;2023-03-20T08:20:21;27.03;;;13.67;;
50379;SDS011;37474;59.468;18.040;2023-03-20T08:23:13;26.90;;;13.27;;
50379;SDS011;37474;59.468;18.040;2023-03-20T08:25:43;29.07;;;14.27;;
50379;SDS011;37474;59.468;18.040;2023-03-20T08:28:13;28.47;;;13.43;;
50379;SDS011;37474;59.468;18.040;2023-03-20T08:30:43;24.55;;;13.10;;
50379;SDS011;37474;59.468;18.040;2023-03-20T08:33:13;26.60;;;14.13;;
50379;SDS011;37474;59.468;18.040;2023-03-20T08:35:42;24.70;;;13.87;;
50379;SDS011;37474;59.468;18.040;2023-03-20T08:38:12;22.53;;;13.33;;
50379;SDS011;37474;59.468;18.040;2023-03-20T08:40:42;23.10;;;12.77;;
50379;SDS011;37474;59.468;18.040;2023-03-20T08:43:10;22.17;;;12.80;;
50379;SDS011;37474;59.468;18.040;2023-03-20T08:45:38;23.57;;;12.47;;
50379;SDS011;37474;59.468;18.040;2023-03-20T08:48:08;18.53;;;11.07;;
50379;SDS011;37474;59.468;18.040;2023-03-20T08:50:36;21.17;;;12.48;;
50379;SDS011;37474;59.468;18.040;2023-03-20T08:53:05;23.67;;;13.03;;
50379;SDS011;37474;59.468;18.040;2023-03-20T08:55:34;23.43;;;12.50;;
50379;SDS011;37474;59.468;18.040;2023-03-20T09:00:34;21.57;;;11.70;;
50379;SDS011;37474;59.468;18.040;2023-03-20T09:03:02;20.83;;;12.05;;
50379;SDS011;37474;59.468;18.040;2023-03-20T09:05:30;24.73;;;12.10;;
50379;SDS011;37474;59.468;18.040;2023-03-20T09:08:03;19.97;;;11.70;;
50379;SDS011;37474;59.468;18.040;2023-03-20T09:10:35;21.70;;;12.57;;
50379;SDS011;37474;59.468;18.040;2023-03-20T09:13:03;20.93;;;12.27;;
50379;SDS011;37474;59.468;18.040;2023-03-20T09:15:51;20.67;;;12.70;;
50379;SDS011;37474;59.468;18.040;2023-03-20T09:18:20;24.50;;;12.93;;
50379;SDS011;37474;59.468;18.040;2023-03-20T09:20:49;21.63;;;12.80;;
50379;SDS011;37474;59.468;18.040;2023-03-20T09:23:17;19.87;;;11.77;;
50379;SDS011;37474;59.468;18.040;2023-03-20T09:25:47;19.67;;;11.47;;
50379;SDS011;37474;59.468;18.040;2023-03-20T09:28:15;24.40;;;12.43;;
50379;SDS011;37474;59.468;18.040;2023-03-20T09:30:42;22.97;;;12.50;;
50379;SDS011;37474;59.468;18.040;2023-03-20T09:33:11;21.77;;;12.97;;
50379;SDS011;37474;59.468;18.040;2023-03-20T09:35:40;21.67;;;13.03;;
50379;SDS011;37474;59.468;18.040;2023-03-20T09:38:11;22.53;;;12.70;;
50379;SDS011;37474;59.468;18.040;2023-03-20T09:40:45;20.23;;;12.32;;
50379;SDS011;37474;59.468;18.040;2023-03-20T09:43:21;21.03;;;12.73;;
50379;SDS011;37474;59.468;18.040;2023-03-20T09:46:01;23.13;;;12.90;;
50379;SDS011;37474;59.468;18.040;2023-03-20T09:48:43;21.03;;;12.20;;
50379;SDS011;37474;59.468;18.040;2023-03-20T09:51:20;20.98;;;12.80;;
50379;SDS011;37474;59.468;18.040;2023-03-20T09:53:56;21.33;;;11.80;;
50379;SDS011;37474;59.468;18.040;2023-03-20T09:56:32;21.37;;;13.07;;
50379;SDS011;37474;59.468;18.040;2023-03-20T09:59:03;21.15;;;12.25;;
50379;SDS011;37474;59.468;18.040;2023-03-20T10:01:35;22.73;;;12.77;;
50379;SDS011;37474;59.468;18.040;2023-03-20T10:04:11;21.77;;;12.93;;
50379;SDS011;37474;59.468;18.040;2023-03-20T10:06:41;21.77;;;12.90;;
50379;SDS011;37474;59.468;18.040;2023-03-20T10:09:11;22.80;;;13.00;;
50379;SDS011;37474;59.468;18.040;2023-03-20T10:11:52;21.13;;;12.43;;
50379;SDS011;37474;59.468;18.040;2023-03-20T10:14:36;17.87;;;11.23;;
50379;SDS011;37474;59.468;18.040;2023-03-20T10:17:18;19.80;;;12.10;;
50379;SDS011;37474;59.468;18.040;2023-03-20T10:19:58;17.27;;;10.80;;
50379;SDS011;37474;59.468;18.040;2023-03-20T10:22:37;19.63;;;11.63;;
50379;SDS011;37474;59.468;18.040;2023-03-20T10:25:15;19.97;;;11.77;;
50379;SDS011;37474;59.468;18.040;2023-03-20T10:27:54;19.20;;;12.10;;
50379;SDS011;37474;59.468;18.040;2023-03-20T10:30:27;22.37;;;13.13;;
50379;SDS011;37474;59.468;18.040;2023-03-20T10:33:08;22.42;;;13.32;;
50379;SDS011;37474;59.468;18.040;2023-03-20T10:35:58;28.30;;;16.20;;
50379;SDS011;37474;59.468;18.040;2023-03-20T10:38:37;23.03;;;12.80;;
50379;SDS011;37474;59.468;18.040;2023-03-20T10:41:12;22.37;;;12.77;;
50379;SDS011;37474;59.468;18.040;2023-03-20T10:43:46;25.43;;;12.67;;
50379;SDS011;37474;59.468;18.040;2023-03-20T10:46:18;23.80;;;13.37;;
50379;SDS011;37474;59.468;18.040;2023-03-20T10:48:51;23.57;;;13.13;;
50379;SDS011;37474;59.468;18.040;2023-03-20T10:51:29;23.13;;;13.10;;
50379;SDS011;37474;59.468;18.040;2023-03-20T10:54:25;23.43;;;14.00;;
50379;SDS011;37474;59.468;18.040;2023-03-20T10:56:58;25.70;;;14.20;;
50379;SDS011;37474;59.468;18.040;2023-03-20T10:59:33;26.30;;;14.00;;
50379;SDS011;37474;59.468;18.040;2023-03-20T11:02:08;29.80;;;14.63;;
50379;SDS011;37474;59.468;18.040;2023-03-20T11:04:37;27.53;;;14.47;;
50379;SDS011;37474;59.468;18.040;2023-03-20T11:07:06;27.37;;;14.67;;
50379;SDS011;37474;59.468;18.040;2023-03-20T11:09:40;25.27;;;13.87;;
50379;SDS011;37474;59.468;18.040;2023-03-20T11:12:13;26.27;;;14.47;;
50379;SDS011;37474;59.468;18.040;2023-03-20T11:14:45;26.40;;;13.87;;
50379;SDS011;37474;59.468;18.040;2023-03-20T11:17:13;23.77;;;14.03;;
50379;SDS011;37474;59.468;18.040;2023-03-20T11:19:43;26.55;;;14.60;;
50379;SDS011;37474;59.468;18.040;2023-03-20T11:22:21;24.07;;;13.77;;
50379;SDS011;37474;59.468;18.040;2023-03-20T11:24:51;26.80;;;14.10;;
50379;SDS011;37474;59.468;18.040;2023-03-20T11:29:53;26.50;;;14.32;;
50379;SDS011;37474;59.468;18.040;2023-03-20T11:32:26;22.67;;;13.60;;
50379;SDS011;37474;59.468;18.040;2023-03-20T11:35:09;22.33;;;13.27;;
50379;SDS011;37474;59.468;18.040;2023-03-20T11:37:45;24.47;;;13.53;;
50379;SDS011;37474;59.468;18.040;2023-03-20T11:40:15;21.52;;;13.00;;
50379;SDS011;37474;59.468;18.040;2023-03-20T11:42:52;24.13;;;13.23;;
50379;SDS011;37474;59.468;18.040;2023-03-20T11:45:25;24.47;;;13.70;;
50379;SDS011;37474;59.468;18.040;2023-03-20T11:47:56;23.73;;;12.73;;
50379;SDS011;37474;59.468;18.040;2023-03-20T11:50:30;22.47;;;12.73;;
50379;SDS011;37474;59.468;18.040;2023-03-20T11:53:01;20.17;;;12.70;;
50379;SDS011;37474;59.468;18.040;2023-03-20T11:55:32;20.77;;;12.83;;
50379;SDS011;37474;59.468;18.040;2023-03-20T11:58:02;20.93;;;13.10;;
50379;SDS011;37474;59.468;18.040;2023-03-20T12:00:36;21.92;;;12.57;;
50379;SDS011;37474;59.468;18.040;2023-03-20T12:03:19;20.10;;;13.20;;
50379;SDS011;37474;59.468;18.040;2023-03-20T12:06:06;21.27;;;12.73;;
50379;SDS011;37474;59.468;18.040;2023-03-20T12:08:39;20.53;;;12.67;;
50379;SDS011;37474;59.468;18.040;2023-03-20T12:14:15;18.60;;;12.53;;
50379;SDS011;37474;59.468;18.040;2023-03-20T12:17:03;19.20;;;12.30;;
50379;SDS011;37474;59.468;18.040;2023-03-20T12:19:42;19.77;;;13.00;;
50379;SDS011;37474;59.468;18.040;2023-03-20T12:22:16;20.17;;;12.63;;
50379;SDS011;37474;59.468;18.040;2023-03-20T12:24:52;21.40;;;13.93;;
50379;SDS011;37474;59.468;18.040;2023-03-20T12:27:28;20.93;;;13.67;;
50379;SDS011;37474;59.468;18.040;2023-03-20T12:30:02;18.97;;;12.63;;
50379;SDS011;37474;59.468;18.040;2023-03-20T12:32:35;18.90;;;12.93;;
50379;SDS011;37474;59.468;18.040;2023-03-20T12:35:09;20.40;;;13.20;;
50379;SDS011;37474;59.468;18.040;2023-03-20T12:37:44;25.67;;;15.27;;
50379;SDS011;37474;59.468;18.040;2023-03-20T12:40:15;21.07;;;13.47;;
50379;SDS011;37474;59.468;18.040;2023-03-20T12:42:47;24.83;;;14.82;;
50379;SDS011;37474;59.468;18.040;2023-03-20T12:45:26;22.13;;;14.30;;
50379;SDS011;37474;59.468;18.040;2023-03-20T12:48:08;25.50;;;14.23;;
50379;SDS011;37474;59.468;18.040;2023-03-20T12:50:50;23.63;;;14.37;;
50379;SDS011;37474;59.468;18.040;2023-03-20T12:53:34;28.10;;;16.13;;
50379;SDS011;37474;59.468;18.040;2023-03-20T12:56:19;27.47;;;15.73;;
50379;SDS011;37474;59.468;18.040;2023-03-20T12:58:57;23.17;;;12.98;;
50379;SDS011;37474;59.468;18.040;2023-03-20T13:01:36;20.30;;;13.30;;
50379;SDS011;37474;59.468;18.040;2023-03-20T13:04:22;17.47;;;11.17;;
50379;SDS011;37474;59.468;18.040;2023-03-20T13:07:19;15.50;;;8.47;;
50379;SDS011;37474;59.468;18.040;2023-03-20T13:09:58;12.03;;;8.00;;
50379;SDS011;37474;59.468;18.040;2023-03-20T13:12:38;9.00;;;6.37;;
50379;SDS011;37474;59.468;18.040;2023-03-20T13:15:24;11.07;;;6.47;;
50379;SDS011;37474;59.468;18.040;2023-03-20T13:18:06;8.73;;;5.70;;
50379;SDS011;37474;59.468;18.040;2023-03-20T13:20:44;8.40;;;5.40;;
50379;SDS011;37474;59.468;18.040;2023-03-20T13:23:19;7.47;;;5.03;;
50379;SDS011;37474;59.468;18.040;2023-03-20T13:26:00;7.00;;;4.50;;
50379;SDS011;37474;59.468;18.040;2023-03-20T13:28:34;7.40;;;4.83;;
50379;SDS011;37474;59.468;18.040;2023-03-20T13:31:12;6.60;;;4.40;;
50379;SDS011;37474;59.468;18.040;2023-03-20T13:33:49;2.30;;;1.70;;
50379;SDS011;37474;59.468;18.040;2023-03-20T13:36:26;1.83;;;1.30;;
50379;SDS011;37474;59.468;18.040;2023-03-20T13:39:08;3.13;;;1.10;;
50379;SDS011;37474;59.468;18.040;2023-03-20T13:41:41;1.20;;;0.90;;
50379;SDS011;37474;59.468;18.040;2023-03-20T13:44:13;1.13;;;0.70;;
50379;SDS011;37474;59.468;18.040;2023-03-20T13:46:49;0.37;;;0.37;;
50379;SDS011;37474;59.468;18.040;2023-03-20T13:49:23;0.30;;;0.30;;
50379;SDS011;37474;59.468;18.040;2023-03-20T13:51:58;1.33;;;0.40;;
50379;SDS011;37474;59.468;18.040;2023-03-20T13:54:45;0.90;;;0.30;;
50379;SDS011;37474;59.468;18.040;2023-03-20T14:00:17;1.37;;;0.20;;
50379;SDS011;37474;59.468;18.040;2023-03-20T14:05:51;0.20;;;0.20;;
50379;SDS011;37474;59.468;18.040;2023-03-20T14:08:22;1.13;;;0.20;;
50379;SDS011;37474;59.468;18.040;2023-03-20T14:11:06;1.23;;;0.40;;
50379;SDS011;37474;59.468;18.040;2023-03-20T14:13:41;0.40;;;0.20;;
50379;SDS011;37474;59.468;18.040;2023-03-20T14:16:13;0.87;;;0.30;;
50379;SDS011;37474;59.468;18.040;2023-03-20T14:18:44;1.30;;;0.30;;
50379;SDS011;37474;59.468;18.040;2023-03-20T14:21:19;0.30;;;0.30;;
50379;SDS011;37474;59.468;18.040;2023-03-20T14:23:56;0.30;;;0.20;;
50379;SDS011;37474;59.468;18.040;2023-03-20T14:26:29;1.40;;;0.40;;
50379;SDS011;37474;59.468;18.040;2023-03-20T14:28:59;0.40;;;0.40;;
50379;SDS011;37474;59.468;18.040;2023-03-20T14:31:29;1.10;;;0.33;;
50379;SDS011;37474;59.468;18.040;2023-03-20T14:34:15;1.77;;;0.50;;
50379;SDS011;37474;59.468;18.040;2023-03-20T14:36:51;2.10;;;0.40;;
50379;SDS011;37474;59.468;18.040;2023-03-20T14:39:27;0.53;;;0.30;;
50379;SDS011;37474;59.468;18.040;2023-03-20T14:42:12;1.47;;;0.60;;
50379;SDS011;37474;59.468;18.040;2023-03-20T14:44:56;1.17;;;0.63;;
50379;SDS011;37474;59.468;18.040;2023-03-20T14:47:44;0.70;;;0.60;;
50379;SDS011;37474;59.468;18.040;2023-03-20T14:50:18;1.00;;;1.00;;
50379;SDS011;37474;59.468;18.040;2023-03-20T14:52:57;0.40;;;0.40;;
50379;SDS011;37474;59.468;18.040;2023-03-20T14:55:32;1.13;;;0.27;;
50379;SDS011;37474;59.468;18.040;2023-03-20T15:01:24;0.67;;;0.27;;
50379;SDS011;37474;59.468;18.040;2023-03-20T15:04:13;0.68;;;0.30;;
50379;SDS011;37474;59.468;18.040;2023-03-20T15:07:34;0.30;;;0.30;;
50379;SDS011;37474;59.468;18.040;2023-03-20T15:10:05;0.10;;;0.10;;
50379;SDS011;37474;59.468;18.040;2023-03-20T15:12:37;0.20;;;0.20;;
50379;SDS011;37474;59.468;18.040;2023-03-20T15:15:06;0.40;;;0.40;;
50379;SDS011;37474;59.468;18.040;2023-03-20T15:17:51;0.43;;;0.20;;
50379;SDS011;37474;59.468;18.040;2023-03-20T15:20:21;0.53;;;0.40;;
50379;SDS011;37474;59.468;18.040;2023-03-20T15:22:51;0.38;;;0.10;;
50379;SDS011;37474;59.468;18.040;2023-03-20T15:25:27;0.30;;;0.20;;
50379;SDS011;37474;59.468;18.040;2023-03-20T15:28:00;0.17;;;0.17;;